sensor_id;sensor_type;location;lat;lon;timestamp;P1;durP1;ratioP1;P2;durP2;ratioP2
42430;SDS011;71905;47.466;19.024;2023-11-21T00:00:04;15.73;;;9.50;;
42430;SDS011;71905;47.466;19.024;2023-11-21T00:02:39;18.98;;;10.40;;
42430;SDS011;71905;47.466;19.024;2023-11-21T00:05:07;13.38;;;8.45;;
42430;SDS011;71905;47.466;19.024;2023-11-21T00:07:36;15.60;;;8.13;;
42430;SDS011;71905;47.466;19.024;2023-11-21T00:10:05;14.10;;;8.30;;
42430;SDS011;71905;47.466;19.024;2023-11-21T00:12:36;12.20;;;7.57;;
42430;SDS011;71905;47.466;19.024;2023-11-21T00:15:05;15.30;;;9.38;;
42430;SDS011;71905;47.466;19.024;2023-11-21T00:17:36;18.77;;;11.50;;
42430;SDS011;71905;47.466;19.024;2023-11-21T00:20:04;16.38;;;10.25;;
42430;SDS011;71905;47.466;19.024;2023-11-21T00:22:34;17.08;;;10.15;;
42430;SDS011;71905;47.466;19.024;2023-11-21T00:25:02;16.65;;;10.60;;
42430;SDS011;71905;47.466;19.024;2023-11-21T00:27:32;18.52;;;11.15;;
42430;SDS011;71905;47.466;19.024;2023-11-21T00:30:01;18.90;;;12.27;;
42430;SDS011;71905;47.466;19.024;2023-11-21T00:32:32;18.48;;;11.48;;
42430;SDS011;71905;47.466;19.024;2023-11-21T00:35:00;17.77;;;10.75;;
42430;SDS011;71905;47.466;19.024;2023-11-21T00:37:28;18.80;;;10.63;;
42430;SDS011;71905;47.466;19.024;2023-11-21T00:39:58;17.67;;;10.10;;
42430;SDS011;71905;47.466;19.024;2023-11-21T00:42:27;16.75;;;10.55;;
42430;SDS011;71905;47.466;19.024;2023-11-21T00:44:56;19.30;;;10.88;;
42430;SDS011;71905;47.466;19.024;2023-11-21T00:47:24;19.85;;;10.18;;
42430;SDS011;71905;47.466;19.024;2023-11-21T00:49:52;17.15;;;10.55;;
42430;SDS011;71905;47.466;19.024;2023-11-21T00:52:20;19.23;;;9.88;;
42430;SDS011;71905;47.466;19.024;2023-11-21T00:54:48;17.10;;;9.65;;
42430;SDS011;71905;47.466;19.024;2023-11-21T00:57:16;17.52;;;8.68;;
42430;SDS011;71905;47.466;19.024;2023-11-21T00:59:44;14.57;;;8.75;;
42430;SDS011;71905;47.466;19.024;2023-11-21T01:02:14;15.32;;;8.70;;
42430;SDS011;71905;47.466;19.024;2023-11-21T01:04:42;12.52;;;7.25;;
42430;SDS011;71905;47.466;19.024;2023-11-21T01:07:10;18.75;;;8.35;;
42430;SDS011;71905;47.466;19.024;2023-11-21T01:09:38;12.07;;;7.30;;
42430;SDS011;71905;47.466;19.024;2023-11-21T01:12:06;15.05;;;7.75;;
42430;SDS011;71905;47.466;19.024;2023-11-21T01:14:34;13.70;;;7.22;;
42430;SDS011;71905;47.466;19.024;2023-11-21T01:17:03;13.13;;;7.60;;
42430;SDS011;71905;47.466;19.024;2023-11-21T01:19:34;13.25;;;7.38;;
42430;SDS011;71905;47.466;19.024;2023-11-21T01:22:02;18.55;;;7.95;;
42430;SDS011;71905;47.466;19.024;2023-11-21T01:24:31;14.13;;;7.53;;
42430;SDS011;71905;47.466;19.024;2023-11-21T01:26:59;14.43;;;7.60;;
42430;SDS011;71905;47.466;19.024;2023-11-21T01:29:27;15.85;;;7.65;;
42430;SDS011;71905;47.466;19.024;2023-11-21T01:31:55;16.92;;;9.10;;
42430;SDS011;71905;47.466;19.024;2023-11-21T01:34:24;15.38;;;7.93;;
42430;SDS011;71905;47.466;19.024;2023-11-21T01:36:54;12.57;;;7.68;;
42430;SDS011;71905;47.466;19.024;2023-11-21T01:39:22;14.57;;;7.78;;
42430;SDS011;71905;47.466;19.024;2023-11-21T01:41:51;13.48;;;7.10;;
42430;SDS011;71905;47.466;19.024;2023-11-21T01:44:19;14.73;;;7.18;;
42430;SDS011;71905;47.466;19.024;2023-11-21T01:46:47;13.88;;;6.90;;
42430;SDS011;71905;47.466;19.024;2023-11-21T01:49:16;15.45;;;7.10;;
42430;SDS011;71905;47.466;19.024;2023-11-21T01:51:45;13.18;;;7.30;;
42430;SDS011;71905;47.466;19.024;2023-11-21T01:54:17;13.45;;;6.70;;
42430;SDS011;71905;47.466;19.024;2023-11-21T01:56:46;14.20;;;7.63;;
42430;SDS011;71905;47.466;19.024;2023-11-21T01:59:17;15.63;;;8.05;;
42430;SDS011;71905;47.466;19.024;2023-11-21T02:01:48;14.68;;;8.18;;
42430;SDS011;71905;47.466;19.024;2023-11-21T02:04:18;15.05;;;8.00;;
42430;SDS011;71905;47.466;19.024;2023-11-21T02:06:46;17.50;;;8.18;;
42430;SDS011;71905;47.466;19.024;2023-11-21T02:09:14;12.98;;;7.53;;
42430;SDS011;71905;47.466;19.024;2023-11-21T02:11:44;15.38;;;7.63;;
42430;SDS011;71905;47.466;19.024;2023-11-21T02:14:12;18.10;;;8.85;;
42430;SDS011;71905;47.466;19.024;2023-11-21T02:16:40;16.63;;;8.10;;
42430;SDS011;71905;47.466;19.024;2023-11-21T02:19:14;16.15;;;8.63;;
42430;SDS011;71905;47.466;19.024;2023-11-21T02:21:46;14.95;;;8.13;;
42430;SDS011;71905;47.466;19.024;2023-11-21T02:24:18;15.45;;;7.90;;
42430;SDS011;71905;47.466;19.024;2023-11-21T02:26:46;13.80;;;7.97;;
42430;SDS011;71905;47.466;19.024;2023-11-21T02:29:14;21.75;;;8.25;;
42430;SDS011;71905;47.466;19.024;2023-11-21T02:31:45;13.10;;;8.15;;
42430;SDS011;71905;47.466;19.024;2023-11-21T02:34:15;18.25;;;8.40;;
42430;SDS011;71905;47.466;19.024;2023-11-21T02:36:43;13.63;;;7.78;;
42430;SDS011;71905;47.466;19.024;2023-11-21T02:39:12;15.65;;;8.13;;
42430;SDS011;71905;47.466;19.024;2023-11-21T02:41:41;17.55;;;9.30;;
42430;SDS011;71905;47.466;19.024;2023-11-21T02:44:10;14.82;;;7.38;;
42430;SDS011;71905;47.466;19.024;2023-11-21T02:46:38;14.13;;;7.05;;
42430;SDS011;71905;47.466;19.024;2023-11-21T02:49:06;12.20;;;7.25;;
42430;SDS011;71905;47.466;19.024;2023-11-21T02:51:36;11.77;;;6.53;;
42430;SDS011;71905;47.466;19.024;2023-11-21T02:54:05;18.90;;;7.00;;
42430;SDS011;71905;47.466;19.024;2023-11-21T02:56:35;14.63;;;7.53;;
42430;SDS011;71905;47.466;19.024;2023-11-21T02:59:05;15.80;;;8.00;;
42430;SDS011;71905;47.466;19.024;2023-11-21T03:01:33;15.80;;;7.45;;
42430;SDS011;71905;47.466;19.024;2023-11-21T03:04:02;11.95;;;6.65;;
42430;SDS011;71905;47.466;19.024;2023-11-21T03:06:30;12.35;;;6.80;;
42430;SDS011;71905;47.466;19.024;2023-11-21T03:08:58;12.25;;;6.63;;
42430;SDS011;71905;47.466;19.024;2023-11-21T03:11:26;11.88;;;6.05;;
42430;SDS011;71905;47.466;19.024;2023-11-21T03:13:54;13.73;;;6.88;;
42430;SDS011;71905;47.466;19.024;2023-11-21T03:16:23;15.30;;;6.85;;
42430;SDS011;71905;47.466;19.024;2023-11-21T03:18:52;11.27;;;6.20;;
42430;SDS011;71905;47.466;19.024;2023-11-21T03:21:20;15.48;;;7.65;;
42430;SDS011;71905;47.466;19.024;2023-11-21T03:23:48;13.88;;;6.75;;
42430;SDS011;71905;47.466;19.024;2023-11-21T03:26:16;15.05;;;7.20;;
42430;SDS011;71905;47.466;19.024;2023-11-21T03:28:44;12.68;;;6.80;;
42430;SDS011;71905;47.466;19.024;2023-11-21T03:31:13;13.65;;;6.65;;
42430;SDS011;71905;47.466;19.024;2023-11-21T03:33:44;14.23;;;7.82;;
42430;SDS011;71905;47.466;19.024;2023-11-21T03:36:13;13.80;;;7.05;;
42430;SDS011;71905;47.466;19.024;2023-11-21T03:38:42;12.85;;;7.43;;
42430;SDS011;71905;47.466;19.024;2023-11-21T03:41:10;15.50;;;8.32;;
42430;SDS011;71905;47.466;19.024;2023-11-21T03:43:38;12.73;;;7.85;;
42430;SDS011;71905;47.466;19.024;2023-11-21T03:46:06;17.33;;;9.18;;
42430;SDS011;71905;47.466;19.024;2023-11-21T03:48:35;17.15;;;11.15;;
42430;SDS011;71905;47.466;19.024;2023-11-21T03:51:04;20.77;;;11.35;;
42430;SDS011;71905;47.466;19.024;2023-11-21T03:53:33;18.27;;;8.48;;
42430;SDS011;71905;47.466;19.024;2023-11-21T03:56:02;13.00;;;7.80;;
42430;SDS011;71905;47.466;19.024;2023-11-21T03:58:32;16.95;;;7.60;;
42430;SDS011;71905;47.466;19.024;2023-11-21T04:01:00;14.00;;;6.68;;
42430;SDS011;71905;47.466;19.024;2023-11-21T04:03:29;14.57;;;6.88;;
42430;SDS011;71905;47.466;19.024;2023-11-21T04:05:57;18.33;;;8.00;;
42430;SDS011;71905;47.466;19.024;2023-11-21T04:08:27;15.27;;;7.45;;
42430;SDS011;71905;47.466;19.024;2023-11-21T04:10:55;14.88;;;6.97;;
42430;SDS011;71905;47.466;19.024;2023-11-21T04:13:23;13.85;;;7.32;;
42430;SDS011;71905;47.466;19.024;2023-11-21T04:15:51;14.63;;;7.40;;
42430;SDS011;71905;47.466;19.024;2023-11-21T04:18:19;14.82;;;6.00;;
42430;SDS011;71905;47.466;19.024;2023-11-21T04:20:48;14.15;;;6.25;;
42430;SDS011;71905;47.466;19.024;2023-11-21T04:23:16;13.45;;;6.70;;
42430;SDS011;71905;47.466;19.024;2023-11-21T04:25:46;12.45;;;7.28;;
42430;SDS011;71905;47.466;19.024;2023-11-21T04:28:14;13.82;;;6.53;;
42430;SDS011;71905;47.466;19.024;2023-11-21T04:30:42;11.73;;;5.70;;
42430;SDS011;71905;47.466;19.024;2023-11-21T04:33:10;12.18;;;5.57;;
42430;SDS011;71905;47.466;19.024;2023-11-21T04:35:38;12.65;;;5.82;;
42430;SDS011;71905;47.466;19.024;2023-11-21T04:38:06;10.90;;;5.07;;
42430;SDS011;71905;47.466;19.024;2023-11-21T04:40:34;12.25;;;5.10;;
42430;SDS011;71905;47.466;19.024;2023-11-21T04:43:03;8.68;;;4.30;;
42430;SDS011;71905;47.466;19.024;2023-11-21T04:45:31;9.95;;;5.25;;
42430;SDS011;71905;47.466;19.024;2023-11-21T04:47:59;8.30;;;4.97;;
42430;SDS011;71905;47.466;19.024;2023-11-21T04:50:28;15.32;;;5.38;;
42430;SDS011;71905;47.466;19.024;2023-11-21T04:52:56;9.98;;;5.68;;
42430;SDS011;71905;47.466;19.024;2023-11-21T04:55:23;13.15;;;5.88;;
42430;SDS011;71905;47.466;19.024;2023-11-21T04:57:54;10.77;;;5.65;;
42430;SDS011;71905;47.466;19.024;2023-11-21T05:00:24;11.52;;;6.00;;
42430;SDS011;71905;47.466;19.024;2023-11-21T05:02:52;12.77;;;5.80;;
42430;SDS011;71905;47.466;19.024;2023-11-21T05:05:20;9.68;;;5.13;;
42430;SDS011;71905;47.466;19.024;2023-11-21T05:07:49;11.20;;;4.78;;
42430;SDS011;71905;47.466;19.024;2023-11-21T05:10:17;11.40;;;5.47;;
42430;SDS011;71905;47.466;19.024;2023-11-21T05:12:45;13.68;;;5.85;;
42430;SDS011;71905;47.466;19.024;2023-11-21T05:15:13;10.73;;;4.68;;
42430;SDS011;71905;47.466;19.024;2023-11-21T05:17:45;10.75;;;5.20;;
42430;SDS011;71905;47.466;19.024;2023-11-21T05:20:16;8.23;;;4.30;;
42430;SDS011;71905;47.466;19.024;2023-11-21T05:22:47;13.82;;;6.88;;
42430;SDS011;71905;47.466;19.024;2023-11-21T05:25:16;11.43;;;5.55;;
42430;SDS011;71905;47.466;19.024;2023-11-21T05:27:45;13.88;;;5.78;;
42430;SDS011;71905;47.466;19.024;2023-11-21T05:30:13;11.13;;;5.07;;
42430;SDS011;71905;47.466;19.024;2023-11-21T05:32:42;10.70;;;5.10;;
42430;SDS011;71905;47.466;19.024;2023-11-21T05:35:11;10.73;;;5.10;;
42430;SDS011;71905;47.466;19.024;2023-11-21T05:37:43;10.30;;;5.17;;
42430;SDS011;71905;47.466;19.024;2023-11-21T05:40:12;8.93;;;4.70;;
42430;SDS011;71905;47.466;19.024;2023-11-21T05:42:40;11.35;;;4.47;;
42430;SDS011;71905;47.466;19.024;2023-11-21T05:45:09;12.13;;;5.07;;
42430;SDS011;71905;47.466;19.024;2023-11-21T05:47:39;11.07;;;4.82;;
42430;SDS011;71905;47.466;19.024;2023-11-21T05:50:09;13.70;;;5.50;;
42430;SDS011;71905;47.466;19.024;2023-11-21T05:52:43;21.30;;;10.60;;
42430;SDS011;71905;47.466;19.024;2023-11-21T05:55:12;27.35;;;15.85;;
42430;SDS011;71905;47.466;19.024;2023-11-21T05:57:41;26.48;;;12.80;;
42430;SDS011;71905;47.466;19.024;2023-11-21T06:00:11;22.73;;;10.88;;
42430;SDS011;71905;47.466;19.024;2023-11-21T06:02:44;15.65;;;9.40;;
42430;SDS011;71905;47.466;19.024;2023-11-21T06:05:13;14.32;;;6.72;;
42430;SDS011;71905;47.466;19.024;2023-11-21T06:07:42;12.48;;;6.43;;
42430;SDS011;71905;47.466;19.024;2023-11-21T06:10:10;16.38;;;6.22;;
42430;SDS011;71905;47.466;19.024;2023-11-21T06:12:41;8.57;;;5.32;;
42430;SDS011;71905;47.466;19.024;2023-11-21T06:15:10;12.75;;;6.10;;
42430;SDS011;71905;47.466;19.024;2023-11-21T06:17:40;9.45;;;5.30;;
42430;SDS011;71905;47.466;19.024;2023-11-21T06:20:11;11.75;;;5.25;;
42430;SDS011;71905;47.466;19.024;2023-11-21T06:22:42;11.57;;;5.82;;
42430;SDS011;71905;47.466;19.024;2023-11-21T06:25:11;15.68;;;6.10;;
42430;SDS011;71905;47.466;19.024;2023-11-21T06:27:41;13.10;;;5.70;;
42430;SDS011;71905;47.466;19.024;2023-11-21T06:30:11;11.93;;;5.35;;
42430;SDS011;71905;47.466;19.024;2023-11-21T06:32:40;14.57;;;7.93;;
42430;SDS011;71905;47.466;19.024;2023-11-21T06:35:12;16.25;;;7.63;;
42430;SDS011;71905;47.466;19.024;2023-11-21T06:37:49;16.98;;;7.38;;
42430;SDS011;71905;47.466;19.024;2023-11-21T06:40:18;11.20;;;4.97;;
42430;SDS011;71905;47.466;19.024;2023-11-21T06:42:47;15.50;;;5.25;;
42430;SDS011;71905;47.466;19.024;2023-11-21T06:45:16;13.25;;;4.32;;
42430;SDS011;71905;47.466;19.024;2023-11-21T06:47:45;7.93;;;3.85;;
42430;SDS011;71905;47.466;19.024;2023-11-21T06:50:13;8.13;;;3.08;;
42430;SDS011;71905;47.466;19.024;2023-11-21T06:52:42;11.68;;;3.28;;
42430;SDS011;71905;47.466;19.024;2023-11-21T06:55:12;8.98;;;3.40;;
42430;SDS011;71905;47.466;19.024;2023-11-21T06:57:40;10.20;;;3.15;;
42430;SDS011;71905;47.466;19.024;2023-11-21T07:00:08;8.75;;;3.10;;
42430;SDS011;71905;47.466;19.024;2023-11-21T07:02:37;10.18;;;3.33;;
42430;SDS011;71905;47.466;19.024;2023-11-21T07:05:06;10.25;;;3.67;;
42430;SDS011;71905;47.466;19.024;2023-11-21T07:07:35;11.50;;;4.97;;
42430;SDS011;71905;47.466;19.024;2023-11-21T07:10:04;10.07;;;4.43;;
42430;SDS011;71905;47.466;19.024;2023-11-21T07:12:34;9.73;;;3.47;;
42430;SDS011;71905;47.466;19.024;2023-11-21T07:15:02;8.05;;;3.35;;
42430;SDS011;71905;47.466;19.024;2023-11-21T07:17:32;9.23;;;3.63;;
42430;SDS011;71905;47.466;19.024;2023-11-21T07:20:07;9.00;;;3.97;;
42430;SDS011;71905;47.466;19.024;2023-11-21T07:22:35;11.55;;;4.30;;
42430;SDS011;71905;47.466;19.024;2023-11-21T07:25:04;9.52;;;3.80;;
42430;SDS011;71905;47.466;19.024;2023-11-21T07:27:35;11.15;;;3.83;;
42430;SDS011;71905;47.466;19.024;2023-11-21T07:30:04;11.35;;;4.18;;
42430;SDS011;71905;47.466;19.024;2023-11-21T07:32:34;9.93;;;3.80;;
42430;SDS011;71905;47.466;19.024;2023-11-21T07:35:02;9.07;;;3.60;;
42430;SDS011;71905;47.466;19.024;2023-11-21T07:37:31;10.48;;;3.30;;
42430;SDS011;71905;47.466;19.024;2023-11-21T07:39:59;8.23;;;3.13;;
42430;SDS011;71905;47.466;19.024;2023-11-21T07:42:27;8.70;;;3.70;;
42430;SDS011;71905;47.466;19.024;2023-11-21T07:44:57;10.90;;;3.63;;
42430;SDS011;71905;47.466;19.024;2023-11-21T07:47:25;10.98;;;4.30;;
42430;SDS011;71905;47.466;19.024;2023-11-21T07:49:54;10.38;;;4.15;;
42430;SDS011;71905;47.466;19.024;2023-11-21T07:52:23;27.27;;;8.15;;
42430;SDS011;71905;47.466;19.024;2023-11-21T07:54:51;23.08;;;10.68;;
42430;SDS011;71905;47.466;19.024;2023-11-21T07:57:19;15.57;;;7.93;;
42430;SDS011;71905;47.466;19.024;2023-11-21T07:59:47;19.80;;;7.15;;
42430;SDS011;71905;47.466;19.024;2023-11-21T08:02:17;21.02;;;7.03;;
42430;SDS011;71905;47.466;19.024;2023-11-21T08:04:46;15.52;;;6.82;;
42430;SDS011;71905;47.466;19.024;2023-11-21T08:07:16;17.83;;;6.63;;
42430;SDS011;71905;47.466;19.024;2023-11-21T08:09:44;16.50;;;6.43;;
42430;SDS011;71905;47.466;19.024;2023-11-21T08:12:15;14.35;;;6.65;;
42430;SDS011;71905;47.466;19.024;2023-11-21T08:14:44;8.90;;;5.20;;
42430;SDS011;71905;47.466;19.024;2023-11-21T08:17:12;9.63;;;4.72;;
42430;SDS011;71905;47.466;19.024;2023-11-21T08:19:45;9.15;;;4.65;;
42430;SDS011;71905;47.466;19.024;2023-11-21T08:22:16;10.70;;;4.63;;
42430;SDS011;71905;47.466;19.024;2023-11-21T08:24:44;13.00;;;4.63;;
42430;SDS011;71905;47.466;19.024;2023-11-21T08:27:13;10.88;;;4.38;;
42430;SDS011;71905;47.466;19.024;2023-11-21T08:29:42;9.45;;;3.80;;
42430;SDS011;71905;47.466;19.024;2023-11-21T08:32:10;10.15;;;4.15;;
42430;SDS011;71905;47.466;19.024;2023-11-21T08:34:38;8.35;;;4.32;;
42430;SDS011;71905;47.466;19.024;2023-11-21T08:37:11;10.18;;;4.38;;
42430;SDS011;71905;47.466;19.024;2023-11-21T08:39:42;11.30;;;5.05;;
42430;SDS011;71905;47.466;19.024;2023-11-21T08:42:11;21.13;;;6.22;;
42430;SDS011;71905;47.466;19.024;2023-11-21T08:44:39;16.25;;;6.72;;
42430;SDS011;71905;47.466;19.024;2023-11-21T08:47:08;14.50;;;7.10;;
42430;SDS011;71905;47.466;19.024;2023-11-21T08:49:36;17.08;;;7.88;;
42430;SDS011;71905;47.466;19.024;2023-11-21T08:52:04;43.80;;;24.17;;
42430;SDS011;71905;47.466;19.024;2023-11-21T08:54:34;24.52;;;12.95;;
42430;SDS011;71905;47.466;19.024;2023-11-21T08:57:03;19.00;;;7.88;;
42430;SDS011;71905;47.466;19.024;2023-11-21T08:59:33;15.93;;;7.95;;
42430;SDS011;71905;47.466;19.024;2023-11-21T09:02:01;15.23;;;7.70;;
42430;SDS011;71905;47.466;19.024;2023-11-21T09:04:30;15.25;;;8.07;;
42430;SDS011;71905;47.466;19.024;2023-11-21T09:06:58;17.83;;;7.55;;
42430;SDS011;71905;47.466;19.024;2023-11-21T09:09:26;15.82;;;7.47;;
42430;SDS011;71905;47.466;19.024;2023-11-21T09:11:56;14.70;;;7.20;;
42430;SDS011;71905;47.466;19.024;2023-11-21T09:14:24;17.33;;;7.65;;
42430;SDS011;71905;47.466;19.024;2023-11-21T09:16:52;24.60;;;9.00;;
42430;SDS011;71905;47.466;19.024;2023-11-21T09:19:20;13.70;;;6.88;;
42430;SDS011;71905;47.466;19.024;2023-11-21T09:21:48;12.35;;;7.60;;
42430;SDS011;71905;47.466;19.024;2023-11-21T09:24:16;18.50;;;7.32;;
42430;SDS011;71905;47.466;19.024;2023-11-21T09:26:44;16.85;;;8.35;;
42430;SDS011;71905;47.466;19.024;2023-11-21T09:29:14;14.80;;;8.10;;
42430;SDS011;71905;47.466;19.024;2023-11-21T09:31:42;17.20;;;9.00;;
42430;SDS011;71905;47.466;19.024;2023-11-21T09:34:10;25.02;;;10.63;;
42430;SDS011;71905;47.466;19.024;2023-11-21T09:36:40;26.98;;;12.02;;
42430;SDS011;71905;47.466;19.024;2023-11-21T09:39:08;22.50;;;11.95;;
42430;SDS011;71905;47.466;19.024;2023-11-21T09:41:37;31.67;;;14.30;;
42430;SDS011;71905;47.466;19.024;2023-11-21T09:44:17;34.38;;;15.95;;
42430;SDS011;71905;47.466;19.024;2023-11-21T09:46:47;19.20;;;10.15;;
42430;SDS011;71905;47.466;19.024;2023-11-21T09:49:21;17.45;;;8.68;;
42430;SDS011;71905;47.466;19.024;2023-11-21T09:51:53;14.95;;;7.38;;
42430;SDS011;71905;47.466;19.024;2023-11-21T09:54:23;16.15;;;7.30;;
42430;SDS011;71905;47.466;19.024;2023-11-21T09:56:53;12.85;;;6.13;;
42430;SDS011;71905;47.466;19.024;2023-11-21T09:59:22;17.35;;;6.88;;
42430;SDS011;71905;47.466;19.024;2023-11-21T10:01:50;13.88;;;6.28;;
42430;SDS011;71905;47.466;19.024;2023-11-21T10:04:18;13.80;;;6.60;;
42430;SDS011;71905;47.466;19.024;2023-11-21T10:06:47;16.63;;;7.57;;
42430;SDS011;71905;47.466;19.024;2023-11-21T10:09:19;16.50;;;7.57;;
42430;SDS011;71905;47.466;19.024;2023-11-21T10:11:48;13.27;;;7.32;;
42430;SDS011;71905;47.466;19.024;2023-11-21T10:14:18;16.05;;;7.00;;
42430;SDS011;71905;47.466;19.024;2023-11-21T10:16:50;18.20;;;7.05;;
42430;SDS011;71905;47.466;19.024;2023-11-21T10:19:20;16.95;;;7.20;;
42430;SDS011;71905;47.466;19.024;2023-11-21T10:21:50;12.98;;;6.63;;
42430;SDS011;71905;47.466;19.024;2023-11-21T10:24:19;13.32;;;7.00;;
42430;SDS011;71905;47.466;19.024;2023-11-21T10:26:47;11.82;;;6.40;;
42430;SDS011;71905;47.466;19.024;2023-11-21T10:29:19;13.88;;;6.93;;
42430;SDS011;71905;47.466;19.024;2023-11-21T10:31:50;13.77;;;6.97;;
42430;SDS011;71905;47.466;19.024;2023-11-21T10:34:21;17.08;;;7.32;;
42430;SDS011;71905;47.466;19.024;2023-11-21T10:36:54;16.40;;;6.82;;
42430;SDS011;71905;47.466;19.024;2023-11-21T10:39:24;18.25;;;7.53;;
42430;SDS011;71905;47.466;19.024;2023-11-21T10:41:57;15.88;;;7.43;;
42430;SDS011;71905;47.466;19.024;2023-11-21T10:44:25;18.63;;;7.32;;
42430;SDS011;71905;47.466;19.024;2023-11-21T10:46:54;15.20;;;7.32;;
42430;SDS011;71905;47.466;19.024;2023-11-21T10:49:24;20.25;;;7.45;;
42430;SDS011;71905;47.466;19.024;2023-11-21T10:51:54;14.60;;;6.45;;
42430;SDS011;71905;47.466;19.024;2023-11-21T10:54:23;13.30;;;6.93;;
42430;SDS011;71905;47.466;19.024;2023-11-21T10:56:53;13.18;;;6.30;;
42430;SDS011;71905;47.466;19.024;2023-11-21T10:59:25;11.57;;;5.70;;
42430;SDS011;71905;47.466;19.024;2023-11-21T11:01:59;18.25;;;6.93;;
42430;SDS011;71905;47.466;19.024;2023-11-21T11:04:31;14.40;;;6.78;;
42430;SDS011;71905;47.466;19.024;2023-11-21T11:07:01;12.65;;;6.80;;
42430;SDS011;71905;47.466;19.024;2023-11-21T11:09:32;13.90;;;6.93;;
42430;SDS011;71905;47.466;19.024;2023-11-21T11:12:01;16.98;;;7.35;;
42430;SDS011;71905;47.466;19.024;2023-11-21T11:14:31;13.05;;;6.30;;
42430;SDS011;71905;47.466;19.024;2023-11-21T11:17:01;13.70;;;6.35;;
42430;SDS011;71905;47.466;19.024;2023-11-21T11:19:32;15.02;;;7.32;;
42430;SDS011;71905;47.466;19.024;2023-11-21T11:22:04;13.45;;;6.38;;
42430;SDS011;71905;47.466;19.024;2023-11-21T11:24:56;14.20;;;6.20;;
42430;SDS011;71905;47.466;19.024;2023-11-21T11:27:42;12.13;;;5.57;;
42430;SDS011;71905;47.466;19.024;2023-11-21T11:30:22;10.00;;;5.13;;
42430;SDS011;71905;47.466;19.024;2023-11-21T11:33:09;15.82;;;6.53;;
42430;SDS011;71905;47.466;19.024;2023-11-21T11:35:46;13.93;;;5.80;;
42430;SDS011;71905;47.466;19.024;2023-11-21T11:38:21;12.30;;;5.72;;
42430;SDS011;71905;47.466;19.024;2023-11-21T11:40:52;16.77;;;5.65;;
42430;SDS011;71905;47.466;19.024;2023-11-21T11:43:27;9.13;;;4.90;;
42430;SDS011;71905;47.466;19.024;2023-11-21T11:45:55;10.93;;;5.30;;
42430;SDS011;71905;47.466;19.024;2023-11-21T11:48:27;13.32;;;5.57;;
42430;SDS011;71905;47.466;19.024;2023-11-21T11:51:01;15.30;;;5.90;;
42430;SDS011;71905;47.466;19.024;2023-11-21T11:53:35;11.20;;;5.30;;
42430;SDS011;71905;47.466;19.024;2023-11-21T11:56:25;12.80;;;5.07;;
42430;SDS011;71905;47.466;19.024;2023-11-21T11:58:57;9.63;;;4.75;;
42430;SDS011;71905;47.466;19.024;2023-11-21T12:01:26;14.02;;;5.15;;
42430;SDS011;71905;47.466;19.024;2023-11-21T12:07:02;12.63;;;4.68;;
42430;SDS011;71905;47.466;19.024;2023-11-21T12:09:30;12.98;;;4.40;;
42430;SDS011;71905;47.466;19.024;2023-11-21T12:11:59;11.93;;;4.68;;
42430;SDS011;71905;47.466;19.024;2023-11-21T12:14:27;10.60;;;4.43;;
42430;SDS011;71905;47.466;19.024;2023-11-21T12:16:56;11.65;;;4.80;;
42430;SDS011;71905;47.466;19.024;2023-11-21T12:19:25;11.68;;;4.38;;
42430;SDS011;71905;47.466;19.024;2023-11-21T12:21:53;12.30;;;4.70;;
42430;SDS011;71905;47.466;19.024;2023-11-21T12:24:22;14.18;;;5.25;;
42430;SDS011;71905;47.466;19.024;2023-11-21T12:26:50;11.60;;;4.90;;
42430;SDS011;71905;47.466;19.024;2023-11-21T12:29:18;10.98;;;5.10;;
42430;SDS011;71905;47.466;19.024;2023-11-21T12:31:48;11.52;;;5.40;;
42430;SDS011;71905;47.466;19.024;2023-11-21T12:34:16;10.55;;;5.53;;
42430;SDS011;71905;47.466;19.024;2023-11-21T12:36:46;10.60;;;5.07;;
42430;SDS011;71905;47.466;19.024;2023-11-21T12:39:15;10.20;;;4.70;;
42430;SDS011;71905;47.466;19.024;2023-11-21T12:41:43;17.27;;;5.82;;
42430;SDS011;71905;47.466;19.024;2023-11-21T12:44:12;13.00;;;5.50;;
42430;SDS011;71905;47.466;19.024;2023-11-21T12:46:42;10.60;;;5.43;;
42430;SDS011;71905;47.466;19.024;2023-11-21T12:49:12;12.65;;;5.40;;
42430;SDS011;71905;47.466;19.024;2023-11-21T12:51:46;12.20;;;4.63;;
42430;SDS011;71905;47.466;19.024;2023-11-21T12:54:14;13.38;;;5.63;;
42430;SDS011;71905;47.466;19.024;2023-11-21T12:56:44;12.43;;;5.63;;
42430;SDS011;71905;47.466;19.024;2023-11-21T12:59:15;14.57;;;5.30;;
42430;SDS011;71905;47.466;19.024;2023-11-21T13:01:45;14.77;;;5.43;;
42430;SDS011;71905;47.466;19.024;2023-11-21T13:04:13;11.00;;;4.72;;
42430;SDS011;71905;47.466;19.024;2023-11-21T13:06:41;12.73;;;5.45;;
42430;SDS011;71905;47.466;19.024;2023-11-21T13:09:11;11.93;;;4.72;;
42430;SDS011;71905;47.466;19.024;2023-11-21T13:11:44;12.90;;;6.00;;
42430;SDS011;71905;47.466;19.024;2023-11-21T13:14:12;13.45;;;5.55;;
42430;SDS011;71905;47.466;19.024;2023-11-21T13:16:41;11.88;;;5.30;;
42430;SDS011;71905;47.466;19.024;2023-11-21T13:19:13;12.60;;;5.72;;
42430;SDS011;71905;47.466;19.024;2023-11-21T13:21:41;10.80;;;5.50;;
42430;SDS011;71905;47.466;19.024;2023-11-21T13:24:10;9.00;;;4.97;;
42430;SDS011;71905;47.466;19.024;2023-11-21T13:26:38;10.82;;;4.75;;
42430;SDS011;71905;47.466;19.024;2023-11-21T13:29:07;8.93;;;4.28;;
42430;SDS011;71905;47.466;19.024;2023-11-21T13:31:35;12.15;;;5.35;;
42430;SDS011;71905;47.466;19.024;2023-11-21T13:34:05;11.90;;;5.40;;
42430;SDS011;71905;47.466;19.024;2023-11-21T13:36:35;10.63;;;5.20;;
42430;SDS011;71905;47.466;19.024;2023-11-21T13:39:05;7.18;;;4.63;;
42430;SDS011;71905;47.466;19.024;2023-11-21T13:41:43;12.25;;;6.07;;
42430;SDS011;71905;47.466;19.024;2023-11-21T13:44:14;12.18;;;5.63;;
42430;SDS011;71905;47.466;19.024;2023-11-21T13:46:53;14.32;;;5.40;;
42430;SDS011;71905;47.466;19.024;2023-11-21T13:49:24;11.07;;;5.90;;
42430;SDS011;71905;47.466;19.024;2023-11-21T13:52:01;10.32;;;5.60;;
42430;SDS011;71905;47.466;19.024;2023-11-21T13:54:30;11.70;;;5.32;;
42430;SDS011;71905;47.466;19.024;2023-11-21T13:56:59;12.70;;;4.97;;
42430;SDS011;71905;47.466;19.024;2023-11-21T13:59:31;11.10;;;5.63;;
42430;SDS011;71905;47.466;19.024;2023-11-21T14:02:00;10.00;;;5.25;;
42430;SDS011;71905;47.466;19.024;2023-11-21T14:04:43;11.23;;;5.43;;
42430;SDS011;71905;47.466;19.024;2023-11-21T14:07:21;11.43;;;5.35;;
42430;SDS011;71905;47.466;19.024;2023-11-21T14:10:02;9.25;;;4.60;;
42430;SDS011;71905;47.466;19.024;2023-11-21T14:12:34;11.00;;;5.07;;
42430;SDS011;71905;47.466;19.024;2023-11-21T14:15:05;10.73;;;5.82;;
42430;SDS011;71905;47.466;19.024;2023-11-21T14:17:36;10.63;;;5.85;;
42430;SDS011;71905;47.466;19.024;2023-11-21T14:20:08;13.95;;;5.78;;
42430;SDS011;71905;47.466;19.024;2023-11-21T14:22:43;12.05;;;6.13;;
42430;SDS011;71905;47.466;19.024;2023-11-21T14:25:11;12.55;;;6.30;;
42430;SDS011;71905;47.466;19.024;2023-11-21T14:27:42;17.58;;;6.72;;
42430;SDS011;71905;47.466;19.024;2023-11-21T14:30:10;15.10;;;7.18;;
42430;SDS011;71905;47.466;19.024;2023-11-21T14:32:40;14.68;;;6.43;;
42430;SDS011;71905;47.466;19.024;2023-11-21T14:35:08;12.05;;;6.00;;
42430;SDS011;71905;47.466;19.024;2023-11-21T14:37:37;15.50;;;6.22;;